Time;durP1;ratioP1;P1;durP2;ratioP2;P2;SDS_P1;SDS_P2;PMS_P1;PMS_P2;Temp;Humidity;BMP_temperature;BMP_pressure;BME280_temperature;BME280_humidity;BME280_pressure;Samples;Min_cycle;Max_cycle;Signal;HPM_P1;HPM_P2
2023/06/04 00:01:56;;;;;;;;;;;;;;;15.40;32.50;98100.88;5108534;27;19919;-58
2023/06/04 00:04:24;;;;;;;;;;;;;;;15.42;32.69;98095.84;5125522;27;19981;-58
2023/06/04 00:06:52;;;;;;;;;;;;;;;15.41;32.87;98093.44;5112462;28;20018;-59
2023/06/04 00:09:21;;;;;;;;;;;;;;;15.40;32.95;98087.16;5113030;28;19958;-58
2023/06/04 00:11:49;;;;;;;;;;;;;;;15.38;32.95;98089.44;5118527;27;19923;-58
2023/06/04 00:14:17;;;;;;;;;;;;;;;15.37;33.02;98085.09;5116109;27;19926;-58
2023/06/04 00:16:45;;;;;;;;;;;;;;;15.26;33.53;98075.72;5114128;28;20234;-58
2023/06/04 00:19:13;;;;;;;;;;;;;;;15.12;33.84;98076.00;5111917;27;20400;-58
2023/06/04 00:21:40;;;;;;;;;;;;;;;15.07;34.07;98072.69;5117640;27;20365;-58
2023/06/04 00:24:08;;;;;;;;;;;;;;;15.08;33.91;98069.63;5105583;27;19990;-58
2023/06/04 00:26:40;;;;;;;;;;;;;;;15.04;34.12;98076.09;5121738;27;19919;-59
2023/06/04 00:29:08;;;;;;;;;;;;;;;15.01;34.05;98074.03;5114376;28;19993;-58
2023/06/04 00:31:36;;;;;;;;;;;;;;;15.00;34.44;98066.97;5098213;28;20014;-59
2023/06/04 00:34:04;;;;;;;;;;;;;;;14.96;34.25;98068.75;5114188;28;19927;-60
2023/06/04 00:36:32;;;;;;;;;;;;;;;14.98;34.04;98077.44;5105578;28;19924;-58
2023/06/04 00:38:59;;;;;;;;;;;;;;;14.89;34.16;98077.53;5096598;28;19973;-58
2023/06/04 00:41:28;;;;;;;;;;;;;;;14.88;34.56;98076.72;5125193;27;19934;-58
2023/06/04 00:43:57;;;;;;;;;;;;;;;14.85;34.25;98080.13;5114190;28;20022;-58
2023/06/04 00:46:26;;;;;;;;;;;;;;;14.84;34.36;98073.06;5127082;27;19977;-58
2023/06/04 00:48:55;;;;;;;;;;;;;;;14.82;34.43;98078.06;5093045;28;19930;-59
2023/06/04 00:51:23;;;;;;;;;;;;;;;14.80;34.39;98076.78;5124881;27;19920;-58
2023/06/04 00:53:51;;;;;;;;;;;;;;;14.81;34.19;98078.41;5123516;27;19920;-59
2023/06/04 00:56:19;;;;;;;;;;;;;;;14.73;34.72;98073.78;5107252;28;19920;-58
2023/06/04 00:58:47;;;;;;;;;;;;;;;14.70;34.69;98079.91;5086725;27;19920;-58
2023/06/04 01:01:18;;;;;;;;;;;;;;;14.66;34.57;98075.13;5144243;27;20628;-58
2023/06/04 01:03:46;;;;;;;;;;;;;;;14.61;34.66;98077.28;5096454;28;19978;-59
2023/06/04 01:06:20;;;;;;;;;;;;;;;14.47;35.35;98077.53;5122494;27;19970;-59
2023/06/04 01:08:50;;;;;;;;;;;;;;;14.37;35.20;98075.16;5094423;28;19920;-58
2023/06/04 01:11:17;;;;;;;;;;;;;;;14.38;35.25;98076.75;5109148;27;19928;-59
2023/06/04 01:13:45;;;;;;;;;;;;;;;14.34;35.07;98076.63;5129437;27;19920;-58
2023/06/04 01:16:14;;;;;;;;;;;;;;;14.39;34.98;98075.63;5114465;27;20170;-58
2023/06/04 01:18:44;;;;;;;;;;;;;;;14.46;35.18;98083.31;5130181;27;20363;-58
2023/06/04 01:21:12;;;;;;;;;;;;;;;14.50;35.11;98081.53;5099111;28;20356;-58
2023/06/04 01:23:42;;;;;;;;;;;;;;;14.50;35.15;98079.59;5113060;28;19964;-59
2023/06/04 01:26:10;;;;;;;;;;;;;;;14.53;34.90;98080.84;5077898;28;19924;-58
2023/06/04 01:28:38;;;;;;;;;;;;;;;14.53;34.76;98080.84;5093456;28;19920;-58
2023/06/04 01:31:08;;;;;;;;;;;;;;;14.50;34.64;98081.53;5112128;27;20010;-58
2023/06/04 01:33:36;;;;;;;;;;;;;;;14.44;34.73;98078.19;5095443;28;19920;-58
2023/06/04 01:36:06;;;;;;;;;;;;;;;14.29;34.97;98081.50;5112431;28;19969;-59
2023/06/04 01:38:34;;;;;;;;;;;;;;;14.27;35.37;98090.00;5095098;28;19931;-60
2023/06/04 01:41:02;;;;;;;;;;;;;;;14.28;35.33;98086.16;5092387;28;19969;-58
2023/06/04 01:43:31;;;;;;;;;;;;;;;14.29;35.11;98086.94;5118281;27;19936;-58
2023/06/04 01:45:59;;;;;;;;;;;;;;;14.15;35.24;98079.78;5090398;27;19972;-58
2023/06/04 01:48:27;;;;;;;;;;;;;;;14.14;34.77;98097.31;5093652;28;19919;-58
2023/06/04 01:50:55;;;;;;;;;;;;;;;14.07;35.14;98093.50;5085585;27;19973;-59
2023/06/04 01:53:24;;;;;;;;;;;;;;;14.05;35.16;98093.81;5092258;27;19965;-58
2023/06/04 01:55:52;;;;;;;;;;;;;;;13.97;35.26;98097.41;5111213;28;19978;-58
2023/06/04 01:58:26;;;;;;;;;;;;;;;13.91;35.27;98097.94;5099299;28;19927;-59
2023/06/04 02:00:55;;;;;;;;;;;;;;;13.88;35.51;98094.72;5096503;28;19927;-60
2023/06/04 02:03:25;;;;;;;;;;;;;;;13.92;35.39;98096.78;5117423;27;19978;-58
2023/06/04 02:05:54;;;;;;;;;;;;;;;13.89;35.56;98100.97;5095855;28;20396;-58
2023/06/04 02:08:25;;;;;;;;;;;;;;;13.77;35.79;98103.59;5099980;28;20018;-58
2023/06/04 02:10:53;;;;;;;;;;;;;;;13.69;36.17;98091.59;5104082;28;20388;-58
2023/06/04 02:13:20;;;;;;;;;;;;;;;13.68;36.14;98098.16;5108083;28;19951;-58
2023/06/04 02:15:48;;;;;;;;;;;;;;;13.70;36.23;98106.03;5088011;28;19966;-58
2023/06/04 02:18:17;;;;;;;;;;;;;;;13.64;36.35;98105.41;5119573;27;19947;-59
2023/06/04 02:20:45;;;;;;;;;;;;;;;13.64;36.33;98105.41;5098652;28;20333;-59
2023/06/04 02:23:14;;;;;;;;;;;;;;;13.62;36.33;98110.38;5127290;27;20265;-58
2023/06/04 02:25:45;;;;;;;;;;;;;;;13.67;36.49;98103.94;5112572;27;19919;-58
2023/06/04 02:28:15;;;;;;;;;;;;;;;13.62;36.46;98111.19;5106498;28;19927;-58
2023/06/04 02:30:43;;;;;;;;;;;;;;;13.63;36.24;98111.97;5104672;28;19965;-59
2023/06/04 02:33:11;;;;;;;;;;;;;;;13.70;36.25;98114.22;5130573;27;20014;-58
2023/06/04 02:35:39;;;;;;;;;;;;;;;13.66;36.18;98111.34;5097689;28;19942;-60
2023/06/04 02:38:07;;;;;;;;;;;;;;;13.67;36.43;98112.94;5110480;27;20023;-60
2023/06/04 02:40:35;;;;;;;;;;;;;;;13.67;36.57;98114.88;5103143;27;19924;-57
2023/06/04 02:43:05;;;;;;;;;;;;;;;13.67;36.40;98110.22;5111180;28;19966;-58
2023/06/04 02:45:33;;;;;;;;;;;;;;;13.59;36.41;98106.41;5117876;27;20289;-58
2023/06/04 02:48:00;;;;;;;;;;;;;;;13.50;36.67;98100.16;5122057;27;19927;-58
2023/06/04 02:50:28;;;;;;;;;;;;;;;13.44;36.83;98106.91;5102541;28;20438;-60
2023/06/04 02:52:56;;;;;;;;;;;;;;;13.46;36.73;98101.91;5102796;28;19934;-59
2023/06/04 02:55:24;;;;;;;;;;;;;;;13.39;36.71;98111.75;5122647;27;20336;-58
2023/06/04 02:57:52;;;;;;;;;;;;;;;13.38;36.83;98107.41;5101753;28;19927;-57
2023/06/04 03:00:21;;;;;;;;;;;;;;;13.36;37.24;98108.53;5115584;28;19973;-58
2023/06/04 03:02:49;;;;;;;;;;;;;;;13.36;37.36;98110.44;5135485;27;19925;-58
2023/06/04 03:05:17;;;;;;;;;;;;;;;13.41;37.21;98110.28;5127175;28;20011;-58
2023/06/04 03:07:46;;;;;;;;;;;;;;;13.35;37.04;98115.13;5125635;27;19924;-58
2023/06/04 03:10:15;;;;;;;;;;;;;;;13.32;37.39;98114.97;5110402;28;20261;-61
2023/06/04 03:12:43;;;;;;;;;;;;;;;13.31;37.16;98114.16;5131586;27;19951;-58
2023/06/04 03:15:11;;;;;;;;;;;;;;;13.31;37.45;98114.16;5126994;28;19963;-58
2023/06/04 03:17:41;;;;;;;;;;;;;;;13.32;37.40;98120.44;5115418;27;19990;-60
2023/06/04 03:20:09;;;;;;;;;;;;;;;13.31;37.32;98116.09;5114484;28;19920;-58
2023/06/04 03:22:38;;;;;;;;;;;;;;;13.27;37.45;98118.69;5108586;27;19970;-58
2023/06/04 03:25:06;;;;;;;;;;;;;;;13.27;37.35;98118.69;5129549;27;19919;-59
2023/06/04 03:27:34;;;;;;;;;;;;;;;13.19;37.45;98114.00;5128392;27;19919;-58
2023/06/04 03:30:03;;;;;;;;;;;;;;;13.13;37.62;98118.00;5096997;28;19969;-58
2023/06/04 03:32:41;;;;;;;;;;;;;;;13.05;38.04;98125.09;5134121;27;19968;-58
2023/06/04 03:35:10;;;;;;;;;;;;;;;12.94;38.25;98121.06;5114318;28;19972;-58
2023/06/04 03:37:38;;;;;;;;;;;;;;;12.89;38.25;98118.53;5096339;28;20374;-58
2023/06/04 03:40:07;;;;;;;;;;;;;;;12.83;38.50;98122.50;5113582;27;19920;-59
2023/06/04 03:42:38;;;;;;;;;;;;;;;12.80;38.54;98123.97;5083968;28;19920;-60
2023/06/04 03:45:07;;;;;;;;;;;;;;;12.76;38.73;98123.00;5098056;28;20338;-58
2023/06/04 03:47:36;;;;;;;;;;;;;;;12.74;38.65;98121.72;5104809;28;19927;-58
2023/06/04 03:50:06;;;;;;;;;;;;;;;12.68;38.94;98123.81;5101832;28;19959;-59
2023/06/04 03:52:34;;;;;;;;;;;;;;;12.62;39.22;98135.16;5140213;27;19920;-58
2023/06/04 03:55:03;;;;;;;;;;;;;;;12.58;39.36;98140.47;5120216;27;19920;-58
2023/06/04 03:57:32;;;;;;;;;;;;;;;12.65;39.18;98124.44;5121312;27;19920;-57
2023/06/04 04:00:01;;;;;;;;;;;;;;;12.65;39.03;98134.53;5096761;28;20410;-58
2023/06/04 04:02:39;;;;;;;;;;;;;;;12.64;39.16;98132.94;5130519;27;19997;-58
2023/06/04 04:05:12;;;;;;;;;;;;;;;12.69;38.98;98138.22;5136230;27;19920;-58
2023/06/04 04:07:42;;;;;;;;;;;;;;;12.71;39.02;98128.59;5095621;28;19924;-58
2023/06/04 04:10:10;;;;;;;;;;;;;;;12.76;39.43;98135.81;5131016;27;19920;-58
2023/06/04 04:12:38;;;;;;;;;;;;;;;12.72;39.49;98137.56;5126888;27;19920;-58
2023/06/04 04:15:08;;;;;;;;;;;;;;;12.80;39.12;98132.16;5124988;27;19928;-58
2023/06/04 04:17:37;;;;;;;;;;;;;;;12.85;39.34;98133.91;5135609;27;19923;-58
2023/06/04 04:20:05;;;;;;;;;;;;;;;12.88;39.63;98132.47;5110393;28;19963;-58
2023/06/04 04:22:40;;;;;;;;;;;;;;;12.90;39.34;98135.69;5104472;28;19920;-58
2023/06/04 04:25:09;;;;;;;;;;;;;;;12.94;39.16;98142.88;5112519;28;19920;-58
2023/06/04 04:27:40;;;;;;;;;;;;;;;12.93;39.51;98137.75;5118553;27;20019;-58
2023/06/04 04:30:12;;;;;;;;;;;;;;;13.00;39.45;98129.91;5124956;27;19958;-59
2023/06/04 04:32:48;;;;;;;;;;;;;;;13.00;39.34;98129.91;5099022;28;19963;-59
2023/06/04 04:35:23;;;;;;;;;;;;;;;13.07;39.40;98127.50;5113189;27;20014;-58
2023/06/04 04:37:55;;;;;;;;;;;;;;;13.05;39.41;98135.19;5094770;28;19928;-58
2023/06/04 04:40:24;;;;;;;;;;;;;;;13.12;39.21;98138.25;5098019;28;19983;-58
2023/06/04 04:42:53;;;;;;;;;;;;;;;13.19;39.10;98143.19;5084297;28;19948;-58
2023/06/04 04:45:20;;;;;;;;;;;;;;;13.23;39.35;98147.72;5095790;28;19974;-58
2023/06/04 04:47:53;;;;;;;;;;;;;;;13.31;39.60;98148.81;5090520;28;19946;-58
2023/06/04 04:50:21;;;;;;;;;;;;;;;13.39;39.23;98142.56;5092698;28;20015;-58
2023/06/04 04:52:50;;;;;;;;;;;;;;;13.46;39.39;98150.25;5090306;28;19981;-59
2023/06/04 04:55:20;;;;;;;;;;;;;;;13.41;39.20;98153.94;5089145;28;19943;-58
2023/06/04 04:57:49;;;;;;;;;;;;;;;13.39;39.21;98152.69;5098937;28;20373;-58
2023/06/04 05:00:20;;;;;;;;;;;;;;;13.44;39.40;98149.78;5100896;28;19920;-58
2023/06/04 05:02:51;;;;;;;;;;;;;;;13.50;39.33;98156.66;5106469;28;20311;-58
2023/06/04 05:05:19;;;;;;;;;;;;;;;13.54;39.77;98154.91;5090689;28;20273;-58
2023/06/04 05:07:50;;;;;;;;;;;;;;;13.62;39.67;98162.25;5082074;28;19927;-58
2023/06/04 05:10:22;;;;;;;;;;;;;;;13.57;39.57;98165.97;5091226;28;20288;-58
2023/06/04 05:12:51;;;;;;;;;;;;;;;13.57;39.88;98171.41;5090329;28;19920;-59
2023/06/04 05:15:21;;;;;;;;;;;;;;;13.67;39.64;98169.47;5123977;27;20368;-58
2023/06/04 05:17:52;;;;;;;;;;;;;;;13.80;39.73;98163.03;5104169;28;19982;-58
2023/06/04 05:20:22;;;;;;;;;;;;;;;13.81;39.56;98170.88;5095282;28;19943;-59
2023/06/04 05:22:51;;;;;;;;;;;;;;;13.81;39.39;98165.44;5093729;28;19946;-58
2023/06/04 05:25:22;;;;;;;;;;;;;;;13.88;40.05;98170.38;5095491;28;20353;-58
2023/06/04 05:27:54;;;;;;;;;;;;;;;13.92;39.28;98176.00;5087759;28;19955;-58
2023/06/04 05:30:22;;;;;;;;;;;;;;;14.04;39.55;98174.19;5127642;27;19920;-60
2023/06/04 05:32:50;;;;;;;;;;;;;;;14.07;40.09;98173.53;5094148;28;19963;-59
2023/06/04 05:35:22;;;;;;;;;;;;;;;14.18;39.73;98186.84;5124129;27;20361;-58
2023/06/04 05:37:53;;;;;;;;;;;;;;;14.21;39.87;98183.44;5089791;28;19934;-59
2023/06/04 05:40:26;;;;;;;;;;;;;;;14.26;38.75;98180.50;5091428;28;19924;-59
2023/06/04 05:42:55;;;;;;;;;;;;;;;14.27;39.10;98187.56;5123100;27;20023;-58
2023/06/04 05:45:26;;;;;;;;;;;;;;;14.33;39.28;98189.03;5090201;28;20273;-58
2023/06/04 05:47:54;;;;;;;;;;;;;;;14.32;39.66;98190.94;5090581;28;20281;-60
2023/06/04 05:50:25;;;;;;;;;;;;;;;14.35;39.37;98189.47;5087550;28;19931;-59
2023/06/04 05:52:52;;;;;;;;;;;;;;;14.42;39.42;98195.22;5091825;28;19966;-58
2023/06/04 05:55:21;;;;;;;;;;;;;;;14.54;39.53;98192.63;5091224;28;19931;-58
2023/06/04 05:57:51;;;;;;;;;;;;;;;14.61;39.19;98192.91;5091381;28;19970;-58
2023/06/04 06:00:20;;;;;;;;;;;;;;;14.67;38.93;98201.72;5100462;28;19984;-58
2023/06/04 06:02:50;;;;;;;;;;;;;;;14.77;39.05;98190.41;5098329;28;19920;-58
2023/06/04 06:05:31;;;;;;;;;;;;;;;14.66;38.91;98186.44;5090601;28;19936;-58
2023/06/04 06:07:59;;;;;;;;;;;;;;;14.76;38.88;98198.94;5090035;28;20355;-58
2023/06/04 06:10:27;;;;;;;;;;;;;;;14.76;38.57;98193.47;5088937;28;20026;-58
2023/06/04 06:12:56;;;;;;;;;;;;;;;14.85;38.29;98196.94;5086270;28;19927;-65
2023/06/04 06:15:24;;;;;;;;;;;;;;;14.95;38.25;98202.03;5086401;28;19920;-61
2023/06/04 06:17:55;;;;;;;;;;;;;;;14.97;38.19;98202.50;5087311;28;19964;-61
2023/06/04 06:20:23;;;;;;;;;;;;;;;15.04;38.31;98204.69;5090352;28;19946;-63
2023/06/04 06:22:51;;;;;;;;;;;;;;;15.05;38.41;98207.09;5082051;28;19921;-62
2023/06/04 06:25:21;;;;;;;;;;;;;;;15.13;38.20;98208.19;5083416;28;19939;-61
2023/06/04 06:28:08;;;;;;;;;;;;;;;15.26;37.95;98209.84;5089863;28;19920;-63
2023/06/04 06:30:37;;;;;;;;;;;;;;;15.30;38.52;98209.97;5085699;28;19973;-61
2023/06/04 06:33:05;;;;;;;;;;;;;;;15.25;38.00;98210.97;5083641;28;20011;-64
2023/06/04 06:35:33;;;;;;;;;;;;;;;15.32;38.62;98210.44;5100514;28;20019;-60
2023/06/04 06:38:00;;;;;;;;;;;;;;;15.43;38.67;98208.88;5091580;28;19954;-61
2023/06/04 06:40:30;;;;;;;;;;;;;;;15.52;38.21;98206.06;5091954;28;19924;-60
2023/06/04 06:42:58;;;;;;;;;;;;;;;15.63;38.38;98210.81;5095655;28;19930;-61
2023/06/04 06:45:27;;;;;;;;;;;;;;;15.73;38.55;98219.75;5114616;27;19958;-60
2023/06/04 06:47:54;;;;;;;;;;;;;;;15.80;37.96;98215.31;5110816;27;19970;-65
2023/06/04 06:50:22;;;;;;;;;;;;;;;15.86;37.98;98222.19;5101531;28;19924;-64
2023/06/04 06:52:50;;;;;;;;;;;;;;;15.93;37.88;98214.22;5104400;28;20006;-62
2023/06/04 06:55:18;;;;;;;;;;;;;;;16.01;37.48;98218.00;5110393;28;20230;-62
2023/06/04 06:57:46;;;;;;;;;;;;;;;16.14;37.83;98219.66;5126078;27;19919;-60
2023/06/04 07:00:15;;;;;;;;;;;;;;;16.27;37.69;98227.88;5111485;28;19920;-61
2023/06/04 07:02:44;;;;;;;;;;;;;;;16.26;37.46;98229.81;5116993;28;19919;-62
2023/06/04 07:05:14;;;;;;;;;;;;;;;16.36;38.07;98223.09;5111453;28;19920;-61
2023/06/04 07:07:44;;;;;;;;;;;;;;;16.45;37.72;98218.28;5103794;28;19924;-60
2023/06/04 07:10:13;;;;;;;;;;;;;;;16.56;37.63;98226.84;5127500;28;19946;-61
2023/06/04 07:12:40;;;;;;;;;;;;;;;16.58;37.37;98213.63;5110703;28;19965;-61
2023/06/04 07:15:10;;;;;;;;;;;;;;;16.70;37.13;98219.88;5104407;28;19920;-61
2023/06/04 07:17:38;;;;;;;;;;;;;;;16.80;37.52;98212.38;5109657;28;19958;-62
2023/06/04 07:20:09;;;;;;;;;;;;;;;16.86;36.95;98217.28;5108668;28;19927;-62
2023/06/04 07:22:36;;;;;;;;;;;;;;;16.92;36.84;98215.88;5109633;28;19927;-61
2023/06/04 07:25:05;;;;;;;;;;;;;;;16.99;36.88;98213.38;5103496;28;19958;-61
2023/06/04 07:27:34;;;;;;;;;;;;;;;17.06;37.29;98218.28;5110885;28;19920;-61
2023/06/04 07:30:02;;;;;;;;;;;;;;;17.11;37.11;98212.56;5105304;28;20014;-60
2023/06/04 07:32:30;;;;;;;;;;;;;;;17.09;36.95;98209.34;5097668;28;20006;-61
2023/06/04 07:34:57;;;;;;;;;;;;;;;17.15;37.45;98207.97;5121834;27;19931;-62
2023/06/04 07:37:27;;;;;;;;;;;;;;;17.21;37.24;98216.78;5105868;28;20025;-60
2023/06/04 07:39:54;;;;;;;;;;;;;;;17.32;37.55;98212.38;5105652;28;19923;-68
2023/06/04 07:42:22;;;;;;;;;;;;;;;17.41;37.56;98212.22;5104417;28;20015;-61
2023/06/04 07:44:50;;;;;;;;;;;;;;;17.51;37.65;98214.47;5093423;28;19965;-61
2023/06/04 07:47:20;;;;;;;;;;;;;;;17.63;37.51;98214.44;5090704;28;19920;-62
2023/06/04 07:49:48;;;;;;;;;;;;;;;17.71;37.07;98204.44;5095739;28;20338;-65
2023/06/04 07:52:31;;;;;;;;;;;;;;;17.75;36.70;98208.91;5096163;28;19936;-61
2023/06/04 07:54:59;;;;;;;;;;;;;;;17.86;36.73;98214.69;5088708;28;20627;-61
2023/06/04 07:57:27;;;;;;;;;;;;;;;17.93;36.76;98214.09;5106651;28;20006;-61
2023/06/04 07:59:56;;;;;;;;;;;;;;;17.99;36.41;98209.91;5088829;28;19924;-62
2023/06/04 08:02:24;;;;;;;;;;;;;;;17.89;36.53;98207.69;5093390;28;19927;-63
2023/06/04 08:04:52;;;;;;;;;;;;;;;17.92;36.30;98204.25;5087580;28;19939;-61
2023/06/04 08:07:20;;;;;;;;;;;;;;;17.88;36.42;98206.09;5095865;28;19927;-61
2023/06/04 08:09:49;;;;;;;;;;;;;;;17.91;36.69;98199.91;5091261;28;19946;-61
2023/06/04 08:12:17;;;;;;;;;;;;;;;17.99;36.77;98201.69;5101773;28;19928;-61
2023/06/04 08:14:45;;;;;;;;;;;;;;;18.10;36.98;98202.75;5092483;28;19959;-60
2023/06/04 08:17:12;;;;;;;;;;;;;;;18.23;36.55;98201.53;5104559;28;19919;-61
2023/06/04 08:19:40;;;;;;;;;;;;;;;18.31;35.17;98195.03;5101343;28;19924;-61
2023/06/04 08:22:11;;;;;;;;;;;;;;;18.40;35.71;98199.56;5110022;27;19982;-62
2023/06/04 08:24:38;;;;;;;;;;;;;;;18.44;35.49;98190.25;5089080;28;19927;-62
2023/06/04 08:27:08;;;;;;;;;;;;;;;18.46;34.51;98200.91;5101175;28;19931;-60
2023/06/04 08:29:36;;;;;;;;;;;;;;;18.47;34.44;98197.78;5096976;28;20421;-61
2023/06/04 08:32:05;;;;;;;;;;;;;;;18.54;34.57;98194.44;5103823;28;19930;-60
2023/06/04 08:34:33;;;;;;;;;;;;;;;18.63;35.42;98196.97;5099876;28;19927;-64
2023/06/04 08:37:02;;;;;;;;;;;;;;;18.69;35.37;98196.38;5088648;28;20668;-63
2023/06/04 08:39:30;;;;;;;;;;;;;;;18.77;35.35;98194.59;5096893;28;20431;-61
2023/06/04 08:41:59;;;;;;;;;;;;;;;18.84;34.85;98200.25;5104642;28;19920;-60
2023/06/04 08:44:29;;;;;;;;;;;;;;;18.97;34.70;98195.44;5101184;28;19991;-61
2023/06/04 08:46:59;;;;;;;;;;;;;;;19.02;33.60;98197.91;5109067;28;19989;-61
2023/06/04 08:49:27;;;;;;;;;;;;;;;19.15;34.24;98191.09;5107267;28;20349;-61
2023/06/04 08:51:55;;;;;;;;;;;;;;;19.23;34.46;98189.28;5113946;27;19958;-64
2023/06/04 08:54:23;;;;;;;;;;;;;;;19.30;34.10;98192.22;5108973;28;19981;-61
2023/06/04 08:56:51;;;;;;;;;;;;;;;19.38;33.69;98199.44;5108471;28;19941;-61
2023/06/04 08:59:19;;;;;;;;;;;;;;;19.49;33.56;98196.91;5110853;28;19920;-61
2023/06/04 09:01:48;;;;;;;;;;;;;;;19.63;33.46;98194.47;5110198;28;20011;-61
2023/06/04 09:04:17;;;;;;;;;;;;;;;19.66;32.79;98206.75;5109418;28;20380;-61
2023/06/04 09:06:45;;;;;;;;;;;;;;;19.67;33.14;98197.31;5109863;28;19924;-61
2023/06/04 09:09:14;;;;;;;;;;;;;;;19.71;32.78;98198.16;5113782;28;20356;-60
2023/06/04 09:11:45;;;;;;;;;;;;;;;19.78;32.01;98209.34;5111668;28;19927;-61
2023/06/04 09:14:12;;;;;;;;;;;;;;;19.81;32.15;98206.63;5105821;28;20428;-61
2023/06/04 09:16:44;;;;;;;;;;;;;;;19.81;31.96;98209.38;5109502;28;20365;-61
2023/06/04 09:19:13;;;;;;;;;;;;;;;19.74;31.91;98200.97;5112481;27;20311;-60
2023/06/04 09:21:50;;;;;;;;;;;;;;;19.89;32.02;98202.84;5109720;28;20307;-61
2023/06/04 09:24:18;;;;;;;;;;;;;;;19.97;32.36;98209.28;5104658;28;19977;-60
2023/06/04 09:26:46;;;;;;;;;;;;;;;20.07;31.80;98202.38;5128501;27;19931;-61
2023/06/04 09:29:15;;;;;;;;;;;;;;;20.08;31.66;98203.97;5105316;28;20356;-60
2023/06/04 09:31:44;;;;;;;;;;;;;;;20.07;31.13;98200.41;5100688;28;19927;-61
2023/06/04 09:34:14;;;;;;;;;;;;;;;20.07;30.97;98202.38;5105135;28;19920;-61
2023/06/04 09:36:42;;;;;;;;;;;;;;;20.10;31.39;98201.66;5112815;28;19924;-61
2023/06/04 09:39:19;;;;;;;;;;;;;;;19.98;31.13;98199.06;5093722;28;19924;-61
2023/06/04 09:41:57;;;;;;;;;;;;;;;19.95;31.24;98199.78;5102767;28;19965;-61
2023/06/04 09:44:25;;;;;;;;;;;;;;;19.98;31.22;98196.31;5091809;28;20293;-61
2023/06/04 09:46:56;;;;;;;;;;;;;;;20.02;31.35;98197.94;5089375;28;19920;-62
2023/06/04 09:49:26;;;;;;;;;;;;;;;20.07;31.11;98191.34;5092551;28;19924;-62
2023/06/04 09:51:53;;;;;;;;;;;;;;;20.21;31.20;98193.56;5089021;28;19920;-60
2023/06/04 09:54:21;;;;;;;;;;;;;;;20.18;30.18;98197.03;5095173;28;19924;-60
2023/06/04 09:56:49;;;;;;;;;;;;;;;20.09;30.27;98186.28;5101359;28;19920;-58
2023/06/04 09:59:17;;;;;;;;;;;;;;;20.13;29.24;98189.88;5104295;28;19924;-59
2023/06/04 10:01:45;;;;;;;;;;;;;;;20.12;29.01;98193.78;5104798;28;19973;-64
2023/06/04 10:04:13;;;;;;;;;;;;;;;20.14;29.64;98188.72;5095714;28;20038;-60
2023/06/04 10:06:43;;;;;;;;;;;;;;;20.20;29.93;98189.22;5099651;28;19924;-58
2023/06/04 10:09:11;;;;;;;;;;;;;;;20.35;31.48;98191.84;5091714;28;19958;-58
2023/06/04 10:11:39;;;;;;;;;;;;;;;20.43;30.24;98187.22;5094409;28;20312;-58
2023/06/04 10:14:08;;;;;;;;;;;;;;;20.45;30.14;98184.09;5096895;28;19921;-59
2023/06/04 10:16:37;;;;;;;;;;;;;;;20.45;29.61;98184.09;5093493;28;19956;-59
2023/06/04 10:19:05;;;;;;;;;;;;;;;20.47;29.01;98181.81;5096795;28;20439;-58
2023/06/04 10:21:35;;;;;;;;;;;;;;;20.48;28.85;98178.66;5093444;28;19920;-58
2023/06/04 10:24:04;;;;;;;;;;;;;;;20.55;28.79;98194.53;5089979;28;19920;-59
2023/06/04 10:26:33;;;;;;;;;;;;;;;20.54;28.73;98187.44;5097862;28;19939;-59
2023/06/04 10:29:01;;;;;;;;;;;;;;;20.41;28.45;98182.09;5101878;28;19927;-58
2023/06/04 10:31:29;;;;;;;;;;;;;;;20.49;28.85;98179.47;5101990;28;19991;-58
2023/06/04 10:33:57;;;;;;;;;;;;;;;20.47;28.49;98170.75;5104865;28;19927;-59
2023/06/04 10:36:25;;;;;;;;;;;;;;;20.48;28.79;98177.88;5101124;28;19973;-60
2023/06/04 10:38:54;;;;;;;;;;;;;;;20.51;28.99;98168.88;5098004;28;19962;-60
2023/06/04 10:41:24;;;;;;;;;;;;;;;20.54;28.41;98176.38;5095632;28;19920;-61
2023/06/04 10:43:53;;;;;;;;;;;;;;;20.58;28.79;98174.50;5112103;28;19920;-59
2023/06/04 10:46:24;;;;;;;;;;;;;;;20.58;28.11;98166.22;5100949;28;20129;-59
2023/06/04 10:48:52;;;;;;;;;;;;;;;20.57;27.95;98170.13;5115475;27;20292;-59
2023/06/04 10:51:29;;;;;;;;;;;;;;;20.57;27.53;98167.38;5111465;28;20364;-59
2023/06/04 10:53:58;;;;;;;;;;;;;;;20.59;27.73;98173.31;5114049;27;19920;-60
2023/06/04 10:56:28;;;;;;;;;;;;;;;20.65;27.57;98166.31;5107622;28;19924;-62
2023/06/04 10:58:56;;;;;;;;;;;;;;;20.63;27.44;98163.94;5109540;28;19973;-61
2023/06/04 11:01:25;;;;;;;;;;;;;;;20.65;28.18;98156.06;5112078;28;20420;-59
2023/06/04 11:03:53;;;;;;;;;;;;;;;20.71;28.47;98153.78;5108936;28;19962;-59
2023/06/04 11:06:21;;;;;;;;;;;;;;;20.83;28.36;98150.00;5111438;28;19920;-59
2023/06/04 11:08:49;;;;;;;;;;;;;;;20.91;27.65;98158.00;5108568;28;20412;-60
2023/06/04 11:11:17;;;;;;;;;;;;;;;21.02;28.11;98155.38;5107988;28;20049;-60
2023/06/04 11:13:46;;;;;;;;;;;;;;;21.16;28.54;98154.78;5127376;27;20333;-60
2023/06/04 11:16:17;;;;;;;;;;;;;;;21.25;28.52;98149.75;5109714;28;20412;-59
2023/06/04 11:18:54;;;;;;;;;;;;;;;21.33;29.11;98150.69;5107172;28;19924;-61
2023/06/04 11:21:22;;;;;;;;;;;;;;;21.51;28.08;98156.41;5104503;28;20011;-60
2023/06/04 11:23:55;;;;;;;;;;;;;;;21.50;27.81;98161.16;5108578;28;19941;-60
2023/06/04 11:26:25;;;;;;;;;;;;;;;21.35;26.59;98162.16;5099804;28;19973;-60
2023/06/04 11:28:54;;;;;;;;;;;;;;;21.28;26.93;98153.75;5110939;28;19973;-61
2023/06/04 11:31:22;;;;;;;;;;;;;;;21.16;27.45;98155.59;5104886;28;19924;-60
2023/06/04 11:33:50;;;;;;;;;;;;;;;21.19;27.63;98143.75;5110278;28;19923;-60
2023/06/04 11:36:27;;;;;;;;;;;;;;;21.22;27.69;98145.00;5101351;28;20339;-60
2023/06/04 11:38:57;;;;;;;;;;;;;;;21.27;28.22;98141.91;5113843;28;20432;-63
2023/06/04 11:41:25;;;;;;;;;;;;;;;21.49;27.72;98140.22;5114703;28;20365;-60
2023/06/04 11:43:54;;;;;;;;;;;;;;;21.59;27.69;98152.56;5113161;28;19985;-60
2023/06/04 11:46:22;;;;;;;;;;;;;;;21.61;27.52;98145.47;5127537;27;19923;-60
2023/06/04 11:48:51;;;;;;;;;;;;;;;21.57;27.13;98128.06;5114987;28;19924;-59
2023/06/04 11:51:20;;;;;;;;;;;;;;;21.67;26.32;98143.94;5129660;27;19971;-60
2023/06/04 11:53:48;;;;;;;;;;;;;;;21.75;27.40;98135.75;5113847;28;19947;-60
2023/06/04 11:56:15;;;;;;;;;;;;;;;21.75;26.40;98135.75;5114573;28;20358;-60
2023/06/04 11:58:43;;;;;;;;;;;;;;;21.66;25.61;98131.31;5101340;28;19919;-59
2023/06/04 12:01:13;;;;;;;;;;;;;;;21.69;26.60;98135.28;5112982;28;19964;-61
2023/06/04 12:03:41;;;;;;;;;;;;;;;21.74;27.18;98129.44;5113378;27;20011;-59
2023/06/04 12:06:16;;;;;;;;;;;;;;;21.89;27.38;98131.16;5113211;28;20018;-61
2023/06/04 12:08:50;;;;;;;;;;;;;;;21.96;27.32;98122.91;5111141;28;20361;-60
2023/06/04 12:11:26;;;;;;;;;;;;;;;22.05;26.54;98125.38;5112873;28;19930;-60
2023/06/04 12:13:55;;;;;;;;;;;;;;;22.13;27.08;98121.50;5112631;28;20001;-64
2023/06/04 12:16:24;;;;;;;;;;;;;;;22.22;25.72;98119.22;5113139;27;19928;-59
2023/06/04 12:18:52;;;;;;;;;;;;;;;22.11;25.02;98121.09;5129946;27;19969;-60
2023/06/04 12:21:26;;;;;;;;;;;;;;;22.09;26.23;98117.88;5129811;27;20420;-59
2023/06/04 12:23:56;;;;;;;;;;;;;;;22.10;25.81;98115.91;5097997;28;20031;-60
2023/06/04 12:26:30;;;;;;;;;;;;;;;22.18;26.21;98123.13;5113853;28;20376;-60
2023/06/04 12:29:01;;;;;;;;;;;;;;;22.17;25.74;98116.00;5114756;27;19920;-59
2023/06/04 12:31:32;;;;;;;;;;;;;;;22.20;25.33;98120.75;5094510;28;19926;-59
2023/06/04 12:34:01;;;;;;;;;;;;;;;22.26;25.61;98127.53;5106560;28;19924;-60
2023/06/04 12:36:29;;;;;;;;;;;;;;;22.31;25.52;98124.41;5111791;28;19924;-58
2023/06/04 12:38:59;;;;;;;;;;;;;;;22.23;24.35;98117.25;5110321;28;19919;-59
2023/06/04 12:41:27;;;;;;;;;;;;;;;22.23;24.47;98117.25;5128121;27;19969;-60
2023/06/04 12:43:55;;;;;;;;;;;;;;;22.22;23.22;98104.59;5104037;28;19967;-63
2023/06/04 12:46:22;;;;;;;;;;;;;;;22.29;24.13;98106.59;5108132;27;20430;-59
2023/06/04 12:48:52;;;;;;;;;;;;;;;22.40;23.95;98118.53;5110833;28;20010;-60
2023/06/04 12:51:20;;;;;;;;;;;;;;;22.25;21.75;98112.09;5112081;28;19932;-60
2023/06/04 12:53:48;;;;;;;;;;;;;;;22.21;21.60;98114.88;5111794;28;19924;-61
2023/06/04 12:56:16;;;;;;;;;;;;;;;22.18;21.80;98110.09;5112887;28;19920;-58
2023/06/04 12:58:44;;;;;;;;;;;;;;;22.19;23.88;98108.91;5112627;27;19924;-60